createdAt,value
2023-03-29T00:01:34.900Z,4.07
2023-03-29T00:04:02.927Z,7.32
2023-03-29T00:06:32.899Z,3.85
2023-03-29T00:09:00.115Z,3.70
2023-03-29T00:11:27.285Z,4.30
2023-03-29T00:13:53.683Z,3.03
2023-03-29T00:16:20.295Z,4.78
2023-03-29T00:18:46.644Z,3.88
2023-03-29T00:21:12.951Z,6.55
2023-03-29T00:23:39.305Z,4.07
2023-03-29T00:26:07.810Z,7.63
2023-03-29T00:28:34.523Z,3.33
2023-03-29T00:31:11.208Z,6.32
2023-03-29T00:33:38.014Z,3.33
2023-03-29T00:36:04.959Z,3.75
2023-03-29T00:38:31.709Z,4.90
2023-03-29T00:40:58.051Z,4.57
2023-03-29T00:43:24.461Z,5.95
2023-03-29T00:45:50.727Z,2.80
2023-03-29T00:48:22.123Z,3.88
2023-03-29T00:50:58.887Z,2.20
2023-03-29T00:53:36.208Z,4.30
2023-03-29T00:56:24.501Z,4.88
2023-03-29T00:58:57.166Z,2.70
2023-03-29T01:01:28.266Z,6.05
2023-03-29T01:04:04.656Z,6.82
2023-03-29T01:06:34.014Z,4.78
2023-03-29T01:09:03.052Z,5.22
2023-03-29T01:11:32.614Z,7.10
2023-03-29T01:14:02.556Z,6.50
2023-03-29T01:16:30.269Z,6.03
2023-03-29T01:18:58.270Z,3.05
2023-03-29T01:21:32.337Z,4.43
2023-03-29T01:24:12.991Z,7.40
2023-03-29T01:26:42.662Z,2.25
2023-03-29T01:29:14.886Z,4.03
2023-03-29T01:31:47.341Z,3.00
2023-03-29T01:34:19.970Z,4.00
2023-03-29T01:37:00.232Z,3.25
2023-03-29T01:39:26.861Z,3.25
2023-03-29T01:42:02.129Z,3.85
2023-03-29T01:44:31.755Z,3.65
2023-03-29T01:47:10.583Z,5.35
2023-03-29T01:49:48.321Z,5.38
2023-03-29T01:52:18.184Z,4.45
2023-03-29T01:54:55.899Z,11.30
2023-03-29T01:57:24.978Z,4.50
2023-03-29T01:59:53.121Z,3.80
2023-03-29T02:02:20.993Z,3.05
2023-03-29T02:04:50.169Z,4.63
2023-03-29T02:07:17.675Z,5.75
2023-03-29T02:09:45.078Z,7.50
2023-03-29T02:12:12.136Z,7.18
2023-03-29T02:14:38.931Z,2.80
2023-03-29T02:17:22.836Z,6.45
2023-03-29T02:19:51.925Z,4.68
2023-03-29T02:22:22.743Z,3.53
2023-03-29T02:24:50.926Z,5.43
2023-03-29T02:27:17.312Z,4.38
2023-03-29T02:29:46.840Z,7.97
2023-03-29T02:32:17.168Z,2.30
2023-03-29T02:34:43.457Z,4.10
2023-03-29T02:37:12.790Z,6.70
2023-03-29T02:39:39.310Z,8.10
2023-03-29T02:42:06.141Z,5.60
2023-03-29T02:44:34.894Z,4.97
2023-03-29T02:47:05.707Z,4.30
2023-03-29T02:49:32.309Z,7.05
2023-03-29T02:52:01.422Z,6.65
2023-03-29T02:54:29.879Z,5.97
2023-03-29T02:56:57.801Z,4.88
2023-03-29T02:59:24.619Z,3.97
2023-03-29T03:01:52.453Z,5.50
2023-03-29T03:04:20.569Z,4.65
2023-03-29T03:06:47.410Z,6.15
2023-03-29T03:09:14.552Z,4.25
2023-03-29T03:11:41.060Z,5.07
2023-03-29T03:14:07.550Z,6.13
2023-03-29T03:16:34.006Z,6.07
2023-03-29T03:19:01.128Z,5.65
2023-03-29T03:21:30.716Z,5.20
2023-03-29T03:23:57.026Z,5.15
2023-03-29T03:26:24.922Z,6.18
2023-03-29T03:28:51.312Z,4.80
2023-03-29T03:31:17.665Z,5.63
2023-03-29T03:33:44.681Z,6.97
2023-03-29T03:36:11.277Z,8.40
2023-03-29T03:38:38.522Z,6.35
2023-03-29T03:41:06.876Z,7.15
2023-03-29T03:43:33.718Z,5.38
2023-03-29T03:46:00.087Z,4.93
2023-03-29T03:48:27.101Z,8.95
2023-03-29T03:50:54.672Z,8.18
2023-03-29T03:53:21.387Z,6.88
2023-03-29T03:55:49.060Z,7.05
2023-03-29T03:58:15.973Z,5.28
2023-03-29T04:00:42.640Z,7.28
2023-03-29T04:03:09.174Z,10.00
2023-03-29T04:05:39.171Z,5.70
2023-03-29T04:08:06.737Z,7.60
2023-03-29T04:10:34.236Z,7.90
2023-03-29T04:13:02.417Z,4.53
2023-03-29T04:15:29.119Z,6.00
2023-03-29T04:17:59.411Z,5.22
2023-03-29T04:20:26.394Z,6.30
2023-03-29T04:22:53.106Z,8.30
2023-03-29T04:25:21.449Z,4.75
2023-03-29T04:27:48.358Z,10.23
2023-03-29T04:30:14.691Z,5.93
2023-03-29T04:32:41.008Z,4.85
2023-03-29T04:35:07.973Z,7.97
2023-03-29T04:37:34.264Z,4.05
2023-03-29T04:40:00.515Z,3.45
2023-03-29T04:42:27.684Z,5.13
2023-03-29T04:44:54.820Z,5.40
2023-03-29T04:47:23.912Z,4.10
2023-03-29T04:49:50.235Z,5.07
2023-03-29T04:52:16.706Z,4.45
2023-03-29T04:54:42.964Z,6.72
2023-03-29T04:57:09.360Z,4.47
2023-03-29T04:59:35.733Z,4.78
2023-03-29T05:02:03.779Z,7.25
2023-03-29T05:04:30.859Z,7.90
2023-03-29T05:06:57.422Z,6.03
2023-03-29T05:09:24.194Z,5.85
2023-03-29T05:11:50.682Z,5.20
2023-03-29T05:14:17.002Z,6.50
2023-03-29T05:16:44.104Z,7.85
2023-03-29T05:19:11.533Z,6.30
2023-03-29T05:21:38.703Z,7.10
2023-03-29T05:24:05.953Z,7.10
2023-03-29T05:26:32.305Z,7.72
2023-03-29T05:28:58.632Z,5.93
2023-03-29T05:31:24.998Z,4.25
2023-03-29T05:33:51.899Z,3.85
2023-03-29T05:36:19.196Z,4.60
2023-03-29T05:38:46.731Z,5.50
2023-03-29T05:41:14.299Z,4.68
2023-03-29T05:43:40.938Z,14.73
2023-03-29T05:46:07.834Z,4.63
2023-03-29T05:48:34.369Z,5.53
2023-03-29T05:51:00.899Z,4.28
2023-03-29T05:53:28.359Z,5.60
2023-03-29T05:55:54.916Z,4.07
2023-03-29T05:58:21.656Z,5.85
2023-03-29T06:00:51.975Z,4.05
2023-03-29T06:03:21.481Z,5.10
2023-03-29T06:05:49.937Z,6.97
2023-03-29T06:08:17.838Z,6.47
2023-03-29T06:10:44.141Z,7.03
2023-03-29T06:13:10.892Z,5.18
2023-03-29T06:15:37.192Z,7.65
2023-03-29T06:18:03.824Z,6.53
2023-03-29T06:20:30.298Z,7.70
2023-03-29T06:22:56.938Z,6.22
2023-03-29T06:25:23.358Z,4.15
2023-03-29T06:27:49.713Z,7.43
2023-03-29T06:30:16.280Z,8.52
2023-03-29T06:32:42.958Z,4.57
2023-03-29T06:35:10.130Z,6.45
2023-03-29T06:37:37.048Z,7.35
2023-03-29T06:40:07.347Z,8.32
2023-03-29T06:42:33.657Z,6.68
2023-03-29T06:45:00.007Z,7.30
2023-03-29T06:47:30.824Z,6.38
2023-03-29T06:49:57.256Z,7.00
2023-03-29T06:52:23.730Z,7.80
2023-03-29T06:54:50.447Z,7.10
2023-03-29T06:57:17.742Z,9.98
2023-03-29T06:59:44.201Z,8.80
2023-03-29T07:02:12.581Z,7.85
2023-03-29T07:04:40.122Z,6.18
2023-03-29T07:07:07.758Z,6.15
2023-03-29T07:09:35.846Z,10.30
2023-03-29T07:12:02.503Z,10.02
2023-03-29T07:14:30.970Z,8.18
2023-03-29T07:16:58.519Z,10.80
2023-03-29T07:19:27.286Z,7.45
2023-03-29T07:21:54.760Z,5.85
2023-03-29T07:24:21.588Z,4.80
2023-03-29T07:27:00.148Z,8.15
2023-03-29T07:29:30.499Z,7.10
2023-03-29T07:31:57.169Z,14.65
2023-03-29T07:34:24.557Z,9.02
2023-03-29T07:36:51.614Z,9.55
2023-03-29T07:39:17.903Z,9.73
2023-03-29T07:41:44.232Z,9.27
2023-03-29T07:44:10.969Z,8.35
2023-03-29T07:46:37.905Z,10.10
2023-03-29T07:49:04.674Z,11.52
2023-03-29T07:51:31.697Z,7.53
2023-03-29T07:53:58.030Z,11.90
2023-03-29T07:56:24.918Z,13.40
2023-03-29T07:58:51.780Z,6.80
2023-03-29T08:01:19.890Z,8.48
2023-03-29T08:03:46.481Z,9.52
2023-03-29T08:06:12.853Z,11.48
2023-03-29T08:08:39.423Z,9.60
2023-03-29T08:11:08.849Z,9.73
2023-03-29T08:13:35.485Z,9.82
2023-03-29T08:16:01.980Z,10.65
2023-03-29T08:18:28.340Z,10.07
2023-03-29T08:20:54.923Z,10.63
2023-03-29T08:23:21.231Z,10.10
2023-03-29T08:25:47.526Z,10.50
2023-03-29T08:28:13.841Z,9.55
2023-03-29T08:30:40.159Z,12.20
2023-03-29T08:33:06.602Z,12.40
2023-03-29T08:35:33.012Z,10.93
2023-03-29T08:37:59.421Z,7.85
2023-03-29T08:40:28.103Z,14.93
2023-03-29T08:42:54.894Z,13.93
2023-03-29T08:45:21.532Z,12.50
2023-03-29T08:48:14.090Z,11.57
2023-03-29T08:50:43.725Z,9.48
2023-03-29T08:53:18.633Z,12.02
2023-03-29T08:55:50.712Z,14.35
2023-03-29T08:58:20.530Z,15.98
2023-03-29T09:00:52.049Z,10.95
2023-03-29T09:03:22.716Z,13.48
2023-03-29T09:05:51.467Z,15.82
2023-03-29T09:08:19.228Z,13.52
2023-03-29T09:10:47.854Z,15.73
2023-03-29T09:13:17.304Z,12.02
2023-03-29T09:15:58.267Z,14.25
2023-03-29T09:18:32.627Z,13.35
2023-03-29T09:21:09.898Z,12.55
2023-03-29T09:23:55.760Z,12.93
2023-03-29T09:29:15.394Z,16.70
2023-03-29T09:31:43.374Z,14.27
2023-03-29T09:34:20.971Z,16.23
2023-03-29T09:36:59.695Z,14.10
2023-03-29T09:39:27.301Z,10.88
2023-03-29T09:42:01.673Z,12.68
2023-03-29T09:44:37.614Z,16.55
2023-03-29T09:47:22.299Z,15.48
2023-03-29T09:49:50.316Z,16.40
2023-03-29T09:52:17.664Z,11.90
2023-03-29T09:54:44.135Z,11.68
2023-03-29T09:57:12.321Z,13.30
2023-03-29T09:59:39.366Z,20.23
2023-03-29T10:02:11.319Z,14.20
2023-03-29T10:04:38.556Z,11.57
2023-03-29T10:07:06.562Z,14.55
2023-03-29T10:09:34.104Z,14.43
2023-03-29T10:12:04.835Z,12.98
2023-03-29T10:14:41.225Z,12.30
2023-03-29T10:17:19.612Z,14.57
2023-03-29T10:19:53.162Z,16.50
2023-03-29T10:22:23.108Z,12.43
2023-03-29T10:24:51.620Z,13.60
2023-03-29T10:27:20.388Z,14.98
2023-03-29T10:29:47.137Z,15.20
2023-03-29T10:32:14.545Z,17.25
2023-03-29T10:34:41.577Z,15.57
2023-03-29T10:37:09.066Z,12.98
2023-03-29T10:39:35.445Z,12.93
2023-03-29T10:42:03.209Z,17.33
2023-03-29T10:44:34.538Z,15.75
2023-03-29T10:47:07.664Z,13.73
2023-03-29T10:49:40.138Z,15.38
2023-03-29T10:52:07.278Z,16.27
2023-03-29T10:54:33.966Z,13.63
2023-03-29T10:57:03.291Z,12.73
2023-03-29T10:59:36.100Z,17.50
2023-03-29T11:02:28.532Z,13.13
2023-03-29T11:04:59.272Z,15.95
2023-03-29T11:07:34.619Z,14.95
2023-03-29T11:10:16.521Z,13.90
2023-03-29T11:13:08.396Z,16.00
2023-03-29T11:15:53.493Z,11.80
2023-03-29T11:18:38.354Z,10.57
2023-03-29T11:21:37.129Z,14.23
2023-03-29T11:24:21.955Z,16.33
2023-03-29T11:27:07.220Z,14.80
2023-03-29T11:29:43.429Z,14.43
2023-03-29T11:32:26.579Z,15.20
2023-03-29T11:35:02.176Z,16.25
2023-03-29T11:40:15.338Z,18.75
2023-03-29T11:42:45.229Z,17.20
2023-03-29T11:45:14.697Z,14.60
2023-03-29T11:47:42.093Z,17.20
2023-03-29T11:50:22.956Z,20.33
2023-03-29T11:52:53.328Z,25.42
2023-03-29T11:55:23.717Z,16.83
2023-03-29T11:58:02.400Z,17.15
2023-03-29T12:00:30.937Z,18.15
2023-03-29T12:03:09.263Z,19.58
2023-03-29T12:05:50.892Z,18.27
2023-03-29T12:08:24.270Z,24.20
2023-03-29T12:11:13.867Z,19.65
2023-03-29T12:13:45.892Z,18.88
2023-03-29T12:16:17.934Z,18.92
2023-03-29T12:18:46.328Z,21.15
2023-03-29T12:21:14.891Z,20.23
2023-03-29T12:23:41.980Z,25.40
2023-03-29T12:26:16.528Z,19.88
2023-03-29T12:28:46.619Z,17.90
2023-03-29T12:31:35.821Z,22.25
2023-03-29T12:34:17.197Z,20.58
2023-03-29T12:36:43.701Z,22.67
2023-03-29T12:39:15.296Z,24.15
2023-03-29T12:41:44.916Z,20.02
2023-03-29T12:44:13.464Z,21.25
2023-03-29T12:46:40.173Z,17.83
2023-03-29T12:49:27.013Z,18.70
2023-03-29T12:51:55.090Z,18.67
2023-03-29T12:54:28.188Z,16.85
2023-03-29T12:56:55.124Z,19.38
2023-03-29T12:59:26.057Z,19.80
2023-03-29T13:01:58.383Z,20.08
2023-03-29T13:04:35.330Z,20.58
2023-03-29T13:07:06.098Z,23.08
2023-03-29T13:09:36.644Z,17.95
2023-03-29T13:12:09.289Z,15.68
2023-03-29T13:14:37.323Z,19.33
2023-03-29T13:17:17.923Z,16.20
2023-03-29T13:19:48.033Z,20.02
2023-03-29T13:22:30.020Z,20.10
2023-03-29T13:25:06.290Z,18.25
2023-03-29T13:27:45.337Z,20.10
2023-03-29T13:30:15.529Z,21.40
2023-03-29T13:32:46.157Z,19.55
2023-03-29T13:35:27.898Z,19.58
2023-03-29T13:37:54.432Z,17.60
2023-03-29T13:40:31.705Z,21.95
2023-03-29T13:43:08.258Z,21.35
2023-03-29T13:45:35.679Z,19.42
2023-03-29T13:48:05.497Z,18.35
2023-03-29T13:50:35.656Z,19.60
2023-03-29T13:53:06.150Z,20.73
2023-03-29T13:55:38.369Z,19.13
2023-03-29T13:58:07.933Z,18.63
2023-03-29T14:00:37.265Z,18.45
2023-03-29T14:03:12.905Z,20.55
2023-03-29T14:05:40.473Z,19.50
2023-03-29T14:08:15.103Z,22.17
2023-03-29T14:10:42.454Z,19.97
2023-03-29T14:13:15.627Z,18.92
2023-03-29T14:15:51.083Z,20.48
2023-03-29T14:20:49.067Z,18.75
2023-03-29T14:23:19.836Z,20.90
2023-03-29T14:25:46.667Z,23.45
2023-03-29T14:28:19.212Z,20.67
2023-03-29T14:30:47.203Z,20.77
2023-03-29T14:33:27.574Z,19.45
2023-03-29T14:35:55.085Z,20.67
2023-03-29T14:38:22.881Z,20.02
2023-03-29T14:40:49.549Z,18.98
2023-03-29T14:43:18.935Z,19.77
2023-03-29T14:45:46.318Z,19.65
2023-03-29T14:48:13.306Z,17.67
2023-03-29T14:50:40.386Z,20.40
2023-03-29T14:53:07.299Z,17.73
2023-03-29T14:55:33.778Z,16.38
2023-03-29T14:58:00.852Z,19.10
2023-03-29T15:00:38.604Z,18.13
2023-03-29T15:03:12.936Z,18.88
2023-03-29T15:05:50.524Z,15.18
2023-03-29T15:08:19.921Z,16.52
2023-03-29T15:10:46.407Z,16.98
2023-03-29T15:13:17.419Z,15.93
2023-03-29T15:15:44.155Z,16.60
2023-03-29T15:18:13.784Z,14.10
2023-03-29T15:20:41.238Z,13.35
2023-03-29T15:23:07.561Z,18.10
2023-03-29T15:25:34.992Z,16.42
2023-03-29T15:28:01.856Z,16.33
2023-03-29T15:30:32.143Z,16.13
2023-03-29T15:33:07.974Z,12.52
2023-03-29T15:35:34.500Z,11.20
2023-03-29T15:38:03.459Z,11.73
2023-03-29T15:40:30.013Z,10.45
2023-03-29T15:42:56.526Z,10.07
2023-03-29T15:45:22.951Z,9.82
2023-03-29T15:47:49.424Z,11.23
2023-03-29T15:50:16.047Z,9.50
2023-03-29T15:52:42.447Z,11.80
2023-03-29T15:55:09.064Z,8.65
2023-03-29T15:57:35.812Z,7.72
2023-03-29T16:00:05.492Z,10.38
2023-03-29T16:02:32.051Z,10.68
2023-03-29T16:05:00.000Z,9.35
2023-03-29T16:07:26.575Z,11.70
2023-03-29T16:09:52.912Z,9.95
2023-03-29T16:12:19.194Z,9.95
2023-03-29T16:14:45.703Z,10.88
2023-03-29T16:17:12.383Z,9.43
2023-03-29T16:19:38.716Z,12.45
2023-03-29T16:22:07.256Z,7.88
2023-03-29T16:24:34.143Z,11.82
2023-03-29T16:27:01.486Z,9.82
2023-03-29T16:29:28.178Z,9.73
2023-03-29T16:31:55.238Z,12.75
2023-03-29T16:34:22.600Z,6.88
2023-03-29T16:36:50.617Z,9.02
2023-03-29T16:39:18.349Z,6.68
2023-03-29T16:41:48.016Z,9.10
2023-03-29T16:44:20.694Z,6.00
2023-03-29T16:46:49.239Z,11.68
2023-03-29T16:49:18.311Z,7.35
2023-03-29T16:51:48.153Z,7.90
2023-03-29T16:54:14.931Z,6.13
2023-03-29T16:56:41.626Z,6.28
2023-03-29T16:59:09.076Z,8.20
2023-03-29T17:01:36.515Z,9.55
2023-03-29T17:04:03.247Z,7.70
2023-03-29T17:06:31.863Z,6.55
2023-03-29T17:08:59.017Z,9.70
2023-03-29T17:11:26.328Z,5.55
2023-03-29T17:13:52.964Z,10.57
2023-03-29T17:16:19.539Z,10.98
2023-03-29T17:18:45.936Z,9.25
2023-03-29T17:21:12.349Z,10.52
2023-03-29T17:23:38.669Z,7.43
2023-03-29T17:26:07.068Z,9.10
2023-03-29T17:28:33.746Z,8.43
2023-03-29T17:31:02.774Z,12.60
2023-03-29T17:33:29.153Z,6.55
2023-03-29T17:35:56.426Z,7.47
2023-03-29T17:38:22.746Z,10.25
2023-03-29T17:40:53.046Z,7.28
2023-03-29T17:43:19.394Z,8.55
2023-03-29T17:45:46.331Z,7.10
2023-03-29T17:48:12.818Z,7.60
2023-03-29T17:50:39.278Z,6.88
2023-03-29T17:53:06.517Z,8.38
2023-03-29T17:55:32.909Z,8.27
2023-03-29T17:57:59.287Z,6.25
2023-03-29T18:00:25.869Z,7.32
2023-03-29T18:02:52.468Z,6.03
2023-03-29T18:05:19.073Z,7.25
2023-03-29T18:07:45.524Z,10.18
2023-03-29T18:10:11.915Z,9.13
2023-03-29T18:12:38.269Z,7.78
2023-03-29T18:15:04.881Z,8.77
2023-03-29T18:17:31.470Z,8.98
2023-03-29T18:19:57.992Z,7.75
2023-03-29T18:22:24.502Z,9.82
2023-03-29T18:24:51.123Z,11.73
2023-03-29T18:27:17.697Z,8.00
2023-03-29T18:29:44.667Z,10.77
2023-03-29T18:32:11.561Z,8.60
2023-03-29T18:34:39.267Z,13.38
2023-03-29T18:37:06.097Z,9.77
2023-03-29T18:39:34.655Z,9.15
2023-03-29T18:42:01.745Z,9.65
2023-03-29T18:44:28.343Z,10.57
2023-03-29T18:46:54.696Z,10.73
2023-03-29T18:49:21.434Z,10.52
2023-03-29T18:51:48.266Z,11.60
2023-03-29T18:54:14.797Z,10.95
2023-03-29T18:56:41.391Z,10.18
2023-03-29T18:59:07.745Z,12.48
2023-03-29T19:01:34.687Z,9.88
2023-03-29T19:04:01.151Z,10.82
2023-03-29T19:06:27.658Z,8.80
2023-03-29T19:08:55.266Z,9.55
2023-03-29T19:11:21.649Z,12.60
2023-03-29T19:13:50.683Z,12.95
2023-03-29T19:16:17.569Z,14.32
2023-03-29T19:18:44.154Z,10.32
2023-03-29T19:21:10.707Z,11.10
2023-03-29T19:23:37.300Z,9.93
2023-03-29T19:26:05.474Z,12.00
2023-03-29T19:28:33.471Z,11.43
2023-03-29T19:31:01.455Z,11.35
2023-03-29T19:33:28.286Z,10.27
2023-03-29T19:35:54.610Z,9.68
2023-03-29T19:38:21.381Z,9.45
2023-03-29T19:40:48.482Z,12.70
2023-03-29T19:43:16.638Z,12.45
2023-03-29T19:45:43.604Z,11.45
2023-03-29T19:50:39.137Z,10.35
2023-03-29T19:53:05.387Z,10.73
2023-03-29T19:55:32.268Z,10.07
2023-03-29T19:57:58.584Z,12.48
2023-03-29T20:00:25.366Z,10.40
2023-03-29T20:02:52.205Z,13.35
2023-03-29T20:05:18.760Z,11.27
2023-03-29T20:07:45.472Z,9.82
2023-03-29T20:10:12.192Z,10.65
2023-03-29T20:12:38.514Z,8.48
2023-03-29T20:15:05.229Z,9.25
2023-03-29T20:17:31.934Z,11.15
2023-03-29T20:19:58.934Z,10.13
2023-03-29T20:22:26.275Z,9.27
2023-03-29T20:24:52.982Z,7.45
2023-03-29T20:27:19.771Z,10.57
2023-03-29T20:29:46.474Z,11.63
2023-03-29T20:32:12.960Z,10.90
2023-03-29T20:34:39.485Z,11.45
2023-03-29T20:37:06.092Z,10.88
2023-03-29T20:39:32.535Z,10.43
2023-03-29T20:41:59.103Z,8.40
2023-03-29T20:44:28.259Z,9.73
2023-03-29T20:47:02.261Z,12.27
2023-03-29T20:49:30.726Z,10.43
2023-03-29T20:51:59.976Z,6.97
2023-03-29T20:54:26.474Z,10.30
2023-03-29T20:56:54.663Z,8.55
2023-03-29T20:59:22.800Z,10.25
2023-03-29T21:01:50.157Z,12.55
2023-03-29T21:04:17.493Z,11.30
2023-03-29T21:06:45.639Z,9.38
2023-03-29T21:09:13.446Z,10.25
2023-03-29T21:11:39.789Z,9.52
2023-03-29T21:14:06.120Z,9.02
2023-03-29T21:16:32.424Z,19.58
2023-03-29T21:18:58.729Z,11.30
2023-03-29T21:21:25.317Z,11.02
2023-03-29T21:23:51.763Z,8.35
2023-03-29T21:26:18.366Z,8.95
2023-03-29T21:28:44.649Z,10.55
2023-03-29T21:31:11.357Z,8.50
2023-03-29T21:33:37.728Z,11.70
2023-03-29T21:36:04.261Z,9.85
2023-03-29T21:38:30.582Z,12.07
2023-03-29T21:40:58.159Z,9.63
2023-03-29T21:43:24.437Z,8.68
2023-03-29T21:45:50.806Z,12.45
2023-03-29T21:48:17.636Z,9.52
2023-03-29T21:50:44.329Z,10.48
2023-03-29T21:53:10.965Z,8.93
2023-03-29T21:55:37.252Z,14.52
2023-03-29T21:58:04.421Z,9.88
2023-03-29T22:00:31.012Z,13.80
2023-03-29T22:02:57.667Z,15.40
2023-03-29T22:05:26.234Z,11.50
2023-03-29T22:07:52.822Z,10.73
2023-03-29T22:10:22.941Z,9.20
2023-03-29T22:12:49.661Z,14.60
2023-03-29T22:15:16.995Z,7.10
2023-03-29T22:17:43.442Z,7.10
2023-03-29T22:20:12.766Z,12.50
2023-03-29T22:22:40.822Z,7.50
2023-03-29T22:25:07.439Z,8.52
2023-03-29T22:27:33.752Z,12.70
2023-03-29T22:30:00.109Z,10.40
2023-03-29T22:32:28.397Z,7.28
2023-03-29T22:34:54.929Z,7.88
2023-03-29T22:37:22.563Z,7.97
2023-03-29T22:39:49.144Z,11.07
2023-03-29T22:42:15.443Z,9.02
2023-03-29T22:44:41.971Z,7.60
2023-03-29T22:47:08.396Z,8.57
2023-03-29T22:49:34.701Z,13.00
2023-03-29T22:52:01.464Z,11.77
2023-03-29T22:54:28.462Z,8.35
2023-03-29T22:56:54.768Z,7.55
2023-03-29T22:59:21.302Z,5.45
2023-03-29T23:01:48.273Z,7.35
2023-03-29T23:04:14.845Z,7.72
2023-03-29T23:06:41.474Z,8.95
2023-03-29T23:09:09.365Z,6.47
2023-03-29T23:11:36.154Z,8.93
2023-03-29T23:14:05.628Z,8.43
2023-03-29T23:16:32.106Z,9.45
2023-03-29T23:18:58.506Z,8.20
2023-03-29T23:21:25.398Z,6.47
2023-03-29T23:23:51.637Z,8.63
2023-03-29T23:26:18.226Z,5.32
2023-03-29T23:28:44.747Z,9.10
2023-03-29T23:31:12.418Z,7.95
2023-03-29T23:33:40.949Z,4.53
2023-03-29T23:36:08.953Z,6.80
2023-03-29T23:38:36.800Z,7.70
2023-03-29T23:41:04.832Z,4.88
2023-03-29T23:43:32.751Z,8.80
2023-03-29T23:46:00.169Z,9.57
2023-03-29T23:48:27.193Z,5.65
2023-03-29T23:50:53.951Z,5.45
2023-03-29T23:53:20.935Z,7.43
2023-03-29T23:55:48.164Z,6.88
2023-03-29T23:58:15.186Z,8.73
